Time;durP1;ratioP1;P1;durP2;ratioP2;P2;SDS_P1;SDS_P2;PMS_P1;PMS_P2;Temp;Humidity;BMP_temperature;BMP_pressure;BME280_temperature;BME280_humidity;BME280_pressure;Samples;Min_cycle;Max_cycle;Signal;HPM_P1;HPM_P2
2023/08/31 00:00:28;;;;;;;2.33;1.30;;;15.70;99.90;;;;;;5064381;28;20731;-23
2023/08/31 00:02:55;;;;;;;2.00;1.30;;;15.70;99.90;;;;;;5066325;28;20542;-24
2023/08/31 00:05:28;;;;;;;1.43;0.83;;;15.70;99.90;;;;;;5065295;28;20218;-24
2023/08/31 00:08:00;;;;;;;2.33;0.90;;;15.70;99.90;;;;;;5063521;28;20276;-24
2023/08/31 00:10:29;;;;;;;1.97;1.20;;;15.70;99.90;;;;;;5045805;28;20298;-24
2023/08/31 00:12:59;;;;;;;1.93;1.20;;;15.60;99.90;;;;;;5046076;28;20581;-24
2023/08/31 00:15:28;;;;;;;1.97;1.10;;;15.60;99.90;;;;;;5044090;28;20316;-24
2023/08/31 00:17:55;;;;;;;2.93;1.50;;;15.60;99.90;;;;;;5046445;28;20192;-23
2023/08/31 00:20:30;;;;;;;2.93;1.23;;;15.60;99.90;;;;;;5059382;28;20701;-24
2023/08/31 00:22:58;;;;;;;1.70;1.00;;;15.50;99.90;;;;;;5044241;28;20235;-24
2023/08/31 00:25:28;;;;;;;1.23;1.00;;;15.50;99.90;;;;;;5045864;28;20645;-23
2023/08/31 00:28:04;;;;;;;1.20;1.10;;;15.50;99.90;;;;;;5044654;28;20226;-24
2023/08/31 00:30:32;;;;;;;2.63;1.30;;;15.50;99.90;;;;;;5051075;28;20288;-24
2023/08/31 00:33:00;;;;;;;1.37;1.00;;;15.50;99.90;;;;;;5045793;28;20552;-24
2023/08/31 00:35:27;;;;;;;1.93;1.20;;;15.50;99.90;;;;;;5026794;28;20318;-24
2023/08/31 00:38:00;;;;;;;2.40;1.30;;;15.50;99.90;;;;;;5046125;28;20232;-24
2023/08/31 00:40:37;;;;;;;1.53;1.27;;;15.50;99.90;;;;;;5045779;28;20734;-30
2023/08/31 00:43:08;;;;;;;3.23;1.73;;;15.40;99.90;;;;;;5045793;28;20674;-30
2023/08/31 00:45:36;;;;;;;1.80;1.47;;;15.40;99.90;;;;;;5045438;28;20279;-30
2023/08/31 00:48:04;;;;;;;2.33;1.17;;;15.40;99.90;;;;;;5044369;28;20334;-30
2023/08/31 00:50:36;;;;;;;2.37;1.60;;;15.40;99.90;;;;;;5061004;28;20203;-30
2023/08/31 00:53:06;;;;;;;2.80;1.47;;;15.40;99.90;;;;;;5066158;28;20677;-30
2023/08/31 00:55:33;;;;;;;2.27;1.40;;;15.40;99.90;;;;;;5060239;28;20207;-30
2023/08/31 00:58:03;;;;;;;1.63;0.90;;;15.40;99.90;;;;;;5061387;28;20221;-30
2023/08/31 01:00:55;;;;;;;3.13;1.40;;;15.40;99.90;;;;;;5059548;28;20223;-30
2023/08/31 01:03:48;;;;;;;2.60;1.27;;;15.40;99.90;;;;;;5062116;28;20680;-30
2023/08/31 01:06:36;;;;;;;1.50;1.40;;;15.40;99.90;;;;;;5062681;28;20677;-30
2023/08/31 01:09:09;;;;;;;2.90;1.20;;;15.30;99.90;;;;;;5062447;28;20204;-30
2023/08/31 01:11:58;;;;;;;2.17;1.37;;;15.30;99.90;;;;;;5060394;28;20298;-30
2023/08/31 01:14:39;;;;;;;2.67;1.37;;;15.30;99.90;;;;;;5064870;28;20206;-30
2023/08/31 01:17:08;;;;;;;3.27;1.37;;;15.20;99.90;;;;;;5060039;28;20239;-30
2023/08/31 01:19:53;;;;;;;2.20;1.60;;;15.20;99.90;;;;;;5060186;28;20191;-30
2023/08/31 01:22:43;;;;;;;2.10;1.30;;;15.20;99.90;;;;;;5067905;28;20618;-30
2023/08/31 01:25:13;;;;;;;2.80;1.40;;;15.20;99.90;;;;;;5040777;28;20574;-30
2023/08/31 01:27:44;;;;;;;1.97;1.50;;;15.20;99.90;;;;;;5064464;28;20623;-30
2023/08/31 01:30:13;;;;;;;2.00;1.63;;;15.20;99.90;;;;;;5053059;28;20725;-30
2023/08/31 01:32:47;;;;;;;1.80;1.43;;;15.20;99.90;;;;;;5069151;28;20200;-30
2023/08/31 01:35:17;;;;;;;2.27;1.70;;;15.20;99.90;;;;;;5068153;28;20192;-31
2023/08/31 01:38:08;;;;;;;2.40;1.60;;;15.20;99.90;;;;;;5068785;28;20227;-30
2023/08/31 01:40:57;;;;;;;1.43;1.33;;;15.20;99.90;;;;;;5055988;28;20307;-25
2023/08/31 01:43:26;;;;;;;2.40;1.40;;;15.10;99.90;;;;;;5048522;28;20777;-24
2023/08/31 01:45:54;;;;;;;1.83;1.30;;;15.10;99.90;;;;;;5046734;28;20200;-24
2023/08/31 01:48:24;;;;;;;1.60;1.30;;;15.10;99.90;;;;;;5046899;28;20311;-24
2023/08/31 01:50:51;;;;;;;1.93;1.30;;;15.10;99.90;;;;;;5058955;28;20203;-24
2023/08/31 01:53:18;;;;;;;2.47;1.63;;;15.10;99.90;;;;;;5068517;28;20582;-24
2023/08/31 01:55:45;;;;;;;2.73;1.23;;;15.10;99.90;;;;;;5055036;28;20682;-24
2023/08/31 01:58:12;;;;;;;3.03;1.50;;;15.10;99.90;;;;;;5048472;28;20355;-24
2023/08/31 02:00:42;;;;;;;2.20;1.47;;;15.00;99.90;;;;;;5049400;28;20562;-24
2023/08/31 02:03:13;;;;;;;1.53;1.40;;;15.00;99.90;;;;;;5048446;28;20381;-24
2023/08/31 02:05:44;;;;;;;2.17;1.83;;;15.00;99.90;;;;;;5046277;28;20569;-24
2023/08/31 02:08:17;;;;;;;3.40;1.80;;;15.00;99.90;;;;;;5048406;28;20370;-24
2023/08/31 02:10:47;;;;;;;3.67;1.57;;;15.00;99.90;;;;;;5056269;28;20673;-24
2023/08/31 02:13:17;;;;;;;1.63;1.43;;;15.00;99.90;;;;;;5050040;28;20299;-24
2023/08/31 02:15:44;;;;;;;3.83;1.70;;;15.00;99.90;;;;;;5067718;28;20213;-24
2023/08/31 02:18:11;;;;;;;4.87;1.83;;;15.00;99.90;;;;;;5080445;28;20272;-24
2023/08/31 02:20:39;;;;;;;1.93;1.50;;;15.00;99.90;;;;;;5075392;28;20208;-24
2023/08/31 02:23:06;;;;;;;2.50;1.60;;;15.00;99.90;;;;;;5046556;28;20195;-24
2023/08/31 02:25:33;;;;;;;4.80;1.70;;;15.00;99.90;;;;;;5047794;28;20196;-30
2023/08/31 02:28:02;;;;;;;3.17;1.90;;;14.90;99.90;;;;;;5047245;28;20212;-30
2023/08/31 02:30:32;;;;;;;1.63;1.50;;;15.00;99.90;;;;;;5045902;28;20218;-29
2023/08/31 02:33:01;;;;;;;2.47;1.70;;;14.90;99.90;;;;;;5065209;28;20711;-30
2023/08/31 02:35:31;;;;;;;2.33;1.80;;;14.90;99.90;;;;;;5065871;28;20728;-30
2023/08/31 02:38:00;;;;;;;3.57;1.87;;;14.90;99.90;;;;;;5066123;28;20686;-30
2023/08/31 02:40:34;;;;;;;2.77;1.63;;;14.90;99.90;;;;;;5064514;28;20228;-30
2023/08/31 02:43:03;;;;;;;2.63;2.03;;;14.90;99.90;;;;;;5061000;28;20203;-30
2023/08/31 02:45:30;;;;;;;2.97;2.00;;;14.90;99.90;;;;;;5054573;28;20220;-30
2023/08/31 02:48:00;;;;;;;2.93;1.90;;;14.90;99.90;;;;;;5029394;28;20236;-29
2023/08/31 02:50:27;;;;;;;2.67;1.70;;;14.90;99.90;;;;;;5044632;28;20707;-30
2023/08/31 02:52:54;;;;;;;3.73;2.20;;;14.90;99.90;;;;;;5061414;28;20320;-30
2023/08/31 02:55:21;;;;;;;5.07;2.00;;;14.90;99.90;;;;;;5046520;28;20208;-29
2023/08/31 02:57:50;;;;;;;3.43;1.90;;;14.90;99.90;;;;;;5065673;28;20269;-30
2023/08/31 03:00:21;;;;;;;2.87;1.93;;;14.90;99.90;;;;;;5057887;28;20208;-30
2023/08/31 03:02:52;;;;;;;3.27;1.90;;;14.90;99.90;;;;;;5064796;28;20199;-30
2023/08/31 03:05:21;;;;;;;2.80;1.80;;;14.80;99.90;;;;;;5065127;28;20257;-29
2023/08/31 03:07:51;;;;;;;2.87;2.33;;;14.90;99.90;;;;;;5067180;28;20290;-29
2023/08/31 03:10:21;;;;;;;3.23;2.30;;;14.90;99.90;;;;;;5065736;28;20219;-30
2023/08/31 03:12:53;;;;;;;3.43;2.10;;;14.90;99.90;;;;;;5064839;28;20299;-29
2023/08/31 03:15:23;;;;;;;3.83;2.50;;;14.90;99.90;;;;;;5066877;28;20208;-29
2023/08/31 03:17:53;;;;;;;3.17;2.20;;;14.90;99.90;;;;;;5066608;28;20285;-29
2023/08/31 03:20:24;;;;;;;2.53;2.00;;;14.90;99.90;;;;;;5064206;28;20216;-30
2023/08/31 03:22:51;;;;;;;2.70;2.10;;;14.90;99.90;;;;;;5057386;28;20208;-29
2023/08/31 03:25:21;;;;;;;4.53;2.27;;;14.90;99.90;;;;;;5046447;28;20235;-29
2023/08/31 03:27:48;;;;;;;2.90;1.93;;;14.90;99.90;;;;;;5056873;28;20215;-29
2023/08/31 03:30:18;;;;;;;3.03;2.20;;;14.90;99.90;;;;;;5044917;28;20214;-30
2023/08/31 03:32:45;;;;;;;3.73;2.33;;;14.90;99.90;;;;;;5046598;28;20222;-30
2023/08/31 03:35:12;;;;;;;5.03;2.17;;;14.90;99.90;;;;;;5044057;28;20257;-30
2023/08/31 03:37:39;;;;;;;5.20;2.30;;;15.00;99.90;;;;;;5056348;28;20543;-30
2023/08/31 03:40:11;;;;;;;2.20;1.90;;;15.00;99.90;;;;;;5065805;28;20235;-29
2023/08/31 03:42:40;;;;;;;5.03;2.80;;;15.00;99.90;;;;;;5061515;28;20196;-30
2023/08/31 03:45:08;;;;;;;2.80;2.10;;;15.00;99.90;;;;;;5066119;28;20204;-30
2023/08/31 03:47:35;;;;;;;3.63;2.30;;;15.00;99.90;;;;;;5064204;28;20199;-29
2023/08/31 03:50:02;;;;;;;3.57;2.20;;;15.00;99.90;;;;;;5047368;28;20203;-24
2023/08/31 03:52:30;;;;;;;3.57;2.43;;;15.00;99.90;;;;;;5064823;28;20299;-23
2023/08/31 03:54:59;;;;;;;4.77;2.50;;;15.10;99.90;;;;;;5066106;28;20293;-23
2023/08/31 03:57:26;;;;;;;3.70;2.30;;;15.10;99.90;;;;;;5056901;28;20226;-23
2023/08/31 03:59:53;;;;;;;4.93;2.43;;;15.10;99.90;;;;;;5044719;28;20677;-29
2023/08/31 04:02:21;;;;;;;4.97;2.60;;;15.10;99.90;;;;;;5044497;28;20192;-29
2023/08/31 04:04:48;;;;;;;4.03;2.00;;;15.10;99.90;;;;;;5043778;28;20670;-29
2023/08/31 04:07:17;;;;;;;5.27;2.20;;;15.10;99.90;;;;;;5045973;28;20226;-29
2023/08/31 04:09:44;;;;;;;4.40;2.37;;;15.10;99.90;;;;;;5044227;28;20207;-29
2023/08/31 04:12:14;;;;;;;2.90;2.40;;;15.10;99.90;;;;;;5045518;28;20224;-29
2023/08/31 04:14:43;;;;;;;3.77;2.30;;;15.10;99.90;;;;;;5046311;28;20222;-30
2023/08/31 04:17:13;;;;;;;3.33;2.43;;;15.10;99.90;;;;;;5046487;28;20263;-29
2023/08/31 04:19:40;;;;;;;3.40;1.90;;;15.10;99.90;;;;;;5060202;28;20223;-29
2023/08/31 04:22:07;;;;;;;4.27;2.07;;;15.10;99.90;;;;;;5044950;28;20207;-29
2023/08/31 04:24:36;;;;;;;3.60;2.07;;;15.10;99.90;;;;;;5045970;28;20207;-29
2023/08/31 04:27:04;;;;;;;2.67;2.17;;;15.10;99.90;;;;;;5046066;28;20203;-30
2023/08/31 04:29:33;;;;;;;3.50;2.07;;;15.10;99.90;;;;;;5044092;28;20207;-29
2023/08/31 04:32:00;;;;;;;6.20;2.70;;;15.10;99.90;;;;;;5046035;28;20234;-29
2023/08/31 04:34:27;;;;;;;3.87;2.03;;;15.10;99.90;;;;;;5027014;28;20564;-30
2023/08/31 04:36:54;;;;;;;3.40;2.20;;;15.10;99.90;;;;;;5048279;28;20310;-30
2023/08/31 04:39:22;;;;;;;5.40;2.97;;;15.10;99.90;;;;;;5063261;28;20332;-29
2023/08/31 04:41:49;;;;;;;5.17;2.80;;;15.10;99.90;;;;;;5064177;28;20297;-30
2023/08/31 04:44:18;;;;;;;6.63;2.57;;;15.10;99.90;;;;;;5045953;28;20299;-29
2023/08/31 04:46:45;;;;;;;4.33;2.40;;;15.10;99.90;;;;;;5044013;28;20678;-29
2023/08/31 04:49:15;;;;;;;2.60;1.97;;;15.10;99.90;;;;;;5052138;28;20315;-29
2023/08/31 04:51:46;;;;;;;3.53;2.40;;;15.10;99.90;;;;;;5048483;28;20722;-29
2023/08/31 04:54:16;;;;;;;3.50;2.07;;;15.10;99.90;;;;;;5049519;28;20228;-29
2023/08/31 04:56:47;;;;;;;4.33;2.60;;;15.10;99.90;;;;;;5047898;28;20714;-30
2023/08/31 04:59:17;;;;;;;4.40;2.13;;;15.10;99.90;;;;;;5032030;28;20675;-30
2023/08/31 05:01:44;;;;;;;4.73;2.20;;;15.10;99.90;;;;;;5066078;28;20307;-29
2023/08/31 05:04:16;;;;;;;4.27;2.00;;;15.10;99.90;;;;;;5054913;28;20208;-29
2023/08/31 05:06:43;;;;;;;4.33;2.33;;;15.10;99.90;;;;;;5033402;28;20220;-29
2023/08/31 05:09:14;;;;;;;4.77;2.50;;;15.10;99.90;;;;;;5059022;28;20235;-30
2023/08/31 05:11:43;;;;;;;3.63;2.07;;;15.10;99.90;;;;;;5067297;28;20211;-29
2023/08/31 05:14:12;;;;;;;5.27;2.27;;;15.10;99.90;;;;;;5064715;28;20286;-29
2023/08/31 05:16:39;;;;;;;3.87;2.47;;;15.10;99.90;;;;;;5065135;28;20757;-30
2023/08/31 05:19:11;;;;;;;5.13;2.20;;;15.10;99.90;;;;;;5062477;28;20191;-31
2023/08/31 05:21:38;;;;;;;4.47;2.73;;;15.10;99.90;;;;;;5053882;28;20290;-30
2023/08/31 05:24:06;;;;;;;3.13;2.07;;;15.10;99.90;;;;;;5070911;28;20203;-30
2023/08/31 05:26:35;;;;;;;3.60;2.30;;;15.10;99.90;;;;;;5072892;28;20221;-29
2023/08/31 05:29:05;;;;;;;4.47;2.33;;;15.10;99.90;;;;;;5066632;28;20210;-30
2023/08/31 05:31:35;;;;;;;2.97;1.80;;;15.10;99.90;;;;;;5059835;28;20228;-30
2023/08/31 05:34:03;;;;;;;5.50;2.43;;;15.10;99.90;;;;;;5067122;28;20211;-30
2023/08/31 05:36:30;;;;;;;3.73;2.20;;;15.10;99.90;;;;;;5067552;28;20212;-30
2023/08/31 05:38:59;;;;;;;5.73;2.27;;;15.10;99.90;;;;;;5066545;28;20258;-29
2023/08/31 05:41:27;;;;;;;3.73;1.93;;;15.10;99.90;;;;;;5048915;28;20506;-30
2023/08/31 05:43:56;;;;;;;6.13;2.17;;;15.10;99.90;;;;;;5043156;28;20203;-30
2023/08/31 05:46:28;;;;;;;9.40;2.63;;;15.10;99.90;;;;;;5059437;28;20211;-30
2023/08/31 05:48:58;;;;;;;7.83;2.30;;;15.20;99.90;;;;;;5062092;28;20662;-30
2023/08/31 05:51:27;;;;;;;4.90;2.40;;;15.20;99.90;;;;;;5069657;28;20227;-30
2023/08/31 05:53:55;;;;;;;10.20;2.60;;;15.20;99.90;;;;;;5058887;28;20203;-30
2023/08/31 05:56:22;;;;;;;6.73;2.60;;;15.20;99.90;;;;;;5048410;28;20216;-30
2023/08/31 05:58:50;;;;;;;6.63;2.33;;;15.20;99.90;;;;;;5071978;28;20317;-30
2023/08/31 06:01:17;;;;;;;7.07;2.80;;;15.20;99.90;;;;;;5067239;28;20574;-30
2023/08/31 06:03:51;;;;;;;6.73;2.87;;;15.30;99.90;;;;;;5062770;28;20196;-30
2023/08/31 06:06:18;;;;;;;7.80;2.63;;;15.30;99.90;;;;;;5065452;28;20223;-29
2023/08/31 06:08:51;;;;;;;4.83;2.23;;;15.30;99.90;;;;;;5047232;28;20234;-29
2023/08/31 06:11:23;;;;;;;5.60;2.60;;;15.30;99.90;;;;;;5048854;28;20220;-29
2023/08/31 06:13:50;;;;;;;5.67;2.30;;;15.30;99.90;;;;;;5052285;28;20205;-29
2023/08/31 06:16:20;;;;;;;6.20;2.20;;;15.40;99.90;;;;;;5048063;28;20212;-29
2023/08/31 06:18:49;;;;;;;3.77;2.50;;;15.40;99.90;;;;;;5034119;28;20219;-30
2023/08/31 06:21:19;;;;;;;6.27;2.30;;;15.40;99.90;;;;;;5055338;28;20303;-23
2023/08/31 06:23:46;;;;;;;8.17;2.83;;;15.40;99.90;;;;;;5056901;28;20264;-23
2023/08/31 06:26:13;;;;;;;6.53;2.60;;;15.40;99.90;;;;;;5046833;28;20228;-23
2023/08/31 06:28:40;;;;;;;7.77;2.83;;;15.50;99.90;;;;;;5051755;28;20196;-23
2023/08/31 06:31:10;;;;;;;4.17;2.27;;;15.50;99.90;;;;;;5051304;28;20196;-23
2023/08/31 06:33:42;;;;;;;7.00;2.77;;;15.50;99.90;;;;;;5043509;28;20271;-23
2023/08/31 06:36:12;;;;;;;6.30;2.80;;;15.50;99.90;;;;;;5062580;28;20204;-23
2023/08/31 06:38:44;;;;;;;5.30;2.70;;;15.50;99.90;;;;;;5054067;28;20699;-23
2023/08/31 06:41:15;;;;;;;4.45;3.05;;;15.60;99.90;;;;;;5060218;28;20204;-23
2023/08/31 06:43:45;;;;;;;5.27;2.73;;;15.60;99.90;;;;;;5064619;28;20294;-23
2023/08/31 06:46:15;;;;;;;7.93;2.67;;;15.60;99.90;;;;;;5062531;28;20206;-23
2023/08/31 06:48:53;;;;;;;7.67;2.80;;;15.70;99.90;;;;;;5065233;28;20214;-23
2023/08/31 06:51:24;;;;;;;10.30;3.30;;;15.70;99.90;;;;;;5043076;28;20243;-23
2023/08/31 06:53:51;;;;;;;7.33;2.83;;;15.70;99.90;;;;;;5055842;28;20208;-23
2023/08/31 06:56:19;;;;;;;11.67;3.50;;;15.70;99.90;;;;;;5067607;28;20199;-23
2023/08/31 06:58:46;;;;;;;9.17;3.13;;;15.80;99.90;;;;;;5073933;28;20298;-23
2023/08/31 07:01:15;;;;;;;5.95;2.92;;;15.80;99.90;;;;;;5085479;28;20260;-23
2023/08/31 07:03:43;;;;;;;8.23;3.05;;;15.90;99.90;;;;;;5085760;28;20244;-23
2023/08/31 07:06:13;;;;;;;5.40;2.70;;;15.90;99.90;;;;;;5064805;28;21022;-23
2023/08/31 07:08:40;;;;;;;8.37;2.90;;;15.90;99.90;;;;;;5068908;28;20203;-23
2023/08/31 07:11:07;;;;;;;5.40;3.13;;;16.00;99.90;;;;;;5087423;28;20199;-24
2023/08/31 07:13:35;;;;;;;6.03;3.08;;;16.00;99.90;;;;;;5083993;28;20294;-23
2023/08/31 07:16:05;;;;;;;5.43;2.70;;;16.10;99.90;;;;;;5058731;28;20224;-23
2023/08/31 07:18:32;;;;;;;6.00;3.10;;;16.10;99.90;;;;;;5046027;28;20294;-23
2023/08/31 07:20:59;;;;;;;6.50;3.20;;;16.20;99.90;;;;;;5061470;28;20265;-23
2023/08/31 07:23:27;;;;;;;5.73;3.13;;;16.20;99.90;;;;;;5060962;28;20589;-23
2023/08/31 07:26:00;;;;;;;11.70;3.37;;;16.20;99.90;;;;;;5065667;28;20303;-24
2023/08/31 07:28:27;;;;;;;5.87;3.33;;;16.30;99.90;;;;;;5068998;28;20644;-23
2023/08/31 07:31:04;;;;;;;11.95;3.47;;;16.30;99.90;;;;;;5058874;28;20230;-23
2023/08/31 07:33:32;;;;;;;8.27;3.50;;;16.40;99.90;;;;;;5055575;28;20230;-23
2023/08/31 07:36:02;;;;;;;8.13;3.17;;;16.40;99.90;;;;;;5069950;28;20210;-23
2023/08/31 07:38:32;;;;;;;6.63;2.73;;;16.40;99.90;;;;;;5060354;28;20374;-24
2023/08/31 07:41:00;;;;;;;8.10;3.30;;;16.50;99.90;;;;;;5082691;28;20713;-24
2023/08/31 07:43:29;;;;;;;8.65;3.08;;;16.50;99.90;;;;;;5058566;28;20257;-23
2023/08/31 07:45:57;;;;;;;9.83;3.53;;;16.60;99.90;;;;;;5054445;28;20208;-24
2023/08/31 07:48:24;;;;;;;8.73;3.50;;;16.60;99.90;;;;;;5060439;28;20326;-26
2023/08/31 07:50:51;;;;;;;9.37;3.77;;;16.60;99.90;;;;;;5075906;28;20318;-23
2023/08/31 07:53:22;;;;;;;9.05;3.80;;;16.70;99.90;;;;;;5066920;28;20294;-23
2023/08/31 07:55:56;;;;;;;6.63;3.67;;;16.70;99.90;;;;;;5056017;28;20409;-23
2023/08/31 07:58:23;;;;;;;6.90;3.40;;;16.80;99.90;;;;;;5060305;28;20219;-23
2023/08/31 08:00:54;;;;;;;8.10;3.83;;;16.80;99.90;;;;;;5069657;28;20215;-24
2023/08/31 08:03:22;;;;;;;10.43;4.03;;;16.80;99.90;;;;;;5063630;28;20665;-23
2023/08/31 08:05:52;;;;;;;13.18;4.30;;;16.90;99.90;;;;;;5061674;28;20643;-23
2023/08/31 08:08:19;;;;;;;9.80;4.22;;;16.90;99.90;;;;;;5065700;28;20235;-24
2023/08/31 08:10:52;;;;;;;8.45;3.50;;;16.90;99.90;;;;;;5063736;28;20222;-24
2023/08/31 08:13:19;;;;;;;11.95;3.55;;;17.00;99.90;;;;;;5062369;28;20249;-23
2023/08/31 08:15:47;;;;;;;8.80;3.80;;;17.00;99.90;;;;;;5062813;28;20295;-23
2023/08/31 08:18:14;;;;;;;8.30;3.45;;;17.10;99.90;;;;;;5048273;28;20242;-23
2023/08/31 08:20:49;;;;;;;9.13;3.70;;;17.10;99.90;;;;;;5055631;28;20608;-23
2023/08/31 08:23:21;;;;;;;7.10;3.70;;;17.20;99.90;;;;;;5051117;28;20662;-23
2023/08/31 08:25:49;;;;;;;10.13;3.60;;;17.20;99.90;;;;;;5049937;28;20192;-23
2023/08/31 08:28:21;;;;;;;7.43;3.20;;;17.20;99.90;;;;;;5015769;28;20289;-23
2023/08/31 08:30:53;;;;;;;9.27;3.70;;;17.30;99.90;;;;;;5068350;28;20207;-23
2023/08/31 08:33:22;;;;;;;6.95;3.42;;;17.30;99.90;;;;;;5063023;28;20234;-23
2023/08/31 08:35:52;;;;;;;7.68;3.42;;;17.40;99.90;;;;;;5063524;28;20591;-24
2023/08/31 08:38:22;;;;;;;5.90;3.42;;;17.50;99.90;;;;;;5062097;28;20330;-24
2023/08/31 08:40:53;;;;;;;8.32;3.10;;;17.50;99.90;;;;;;5070794;28;20211;-23
2023/08/31 08:43:26;;;;;;;6.57;3.40;;;17.60;99.90;;;;;;5061208;28;20704;-23
2023/08/31 08:45:55;;;;;;;9.50;3.47;;;17.60;99.90;;;;;;5076730;28;20247;-23
2023/08/31 08:48:23;;;;;;;8.73;2.97;;;17.70;99.90;;;;;;5072004;28;20200;-23
2023/08/31 08:50:53;;;;;;;9.63;3.45;;;17.70;99.90;;;;;;5064122;28;20633;-24
2023/08/31 08:53:22;;;;;;;9.10;3.20;;;17.80;99.90;;;;;;5065815;28;20220;-23
2023/08/31 08:55:51;;;;;;;9.05;3.10;;;17.80;99.90;;;;;;5056747;28;20286;-23
2023/08/31 08:58:19;;;;;;;7.30;3.30;;;17.90;99.90;;;;;;5067530;28;20211;-23
2023/08/31 09:00:50;;;;;;;7.13;3.20;;;17.90;99.90;;;;;;5063243;28;20203;-23
2023/08/31 09:03:20;;;;;;;9.77;3.83;;;18.00;99.90;;;;;;5061033;28;20219;-23
2023/08/31 09:05:54;;;;;;;8.63;3.47;;;18.00;99.90;;;;;;5054776;28;20569;-23
2023/08/31 09:08:29;;;;;;;9.00;2.90;;;18.00;99.90;;;;;;5063291;28;20261;-23
2023/08/31 09:10:58;;;;;;;8.93;3.38;;;18.10;99.90;;;;;;5053454;28;20330;-23
2023/08/31 09:13:29;;;;;;;10.53;3.73;;;18.10;99.90;;;;;;5059810;28;20212;-24
2023/08/31 09:15:59;;;;;;;8.67;3.60;;;18.20;99.90;;;;;;5075519;28;20634;-24
2023/08/31 09:18:28;;;;;;;6.30;2.90;;;18.20;99.90;;;;;;5051990;28;20228;-23
2023/08/31 09:21:01;;;;;;;7.47;3.00;;;18.20;99.90;;;;;;5068382;28;20218;-25
2023/08/31 09:23:29;;;;;;;9.07;3.03;;;18.30;99.90;;;;;;5069807;28;20203;-23
2023/08/31 09:25:59;;;;;;;7.03;2.80;;;18.30;99.90;;;;;;5059521;28;20585;-23
2023/08/31 09:28:27;;;;;;;6.77;2.70;;;18.30;99.90;;;;;;5065780;28;20204;-23
2023/08/31 09:31:05;;;;;;;6.03;3.33;;;18.40;99.90;;;;;;5064866;28;20704;-29
2023/08/31 09:33:35;;;;;;;7.93;3.30;;;18.40;99.90;;;;;;5087177;28;20292;-30
2023/08/31 09:36:05;;;;;;;7.13;3.10;;;18.40;99.90;;;;;;5070288;28;20214;-30
2023/08/31 09:38:44;;;;;;;8.70;3.60;;;18.50;99.90;;;;;;5057037;28;20243;-30
2023/08/31 09:41:18;;;;;;;7.17;3.10;;;18.50;99.90;;;;;;5058134;28;20210;-30
2023/08/31 09:43:46;;;;;;;10.10;3.07;;;18.50;99.90;;;;;;5054068;28;20614;-30
2023/08/31 09:46:13;;;;;;;7.07;3.20;;;18.50;99.90;;;;;;5061614;28;20300;-30
2023/08/31 09:48:44;;;;;;;5.50;2.88;;;18.60;99.90;;;;;;5061750;28;20294;-30
2023/08/31 09:51:14;;;;;;;5.78;3.00;;;18.60;99.90;;;;;;5067812;28;20196;-30
2023/08/31 09:53:42;;;;;;;8.57;2.83;;;18.60;99.90;;;;;;5059913;28;20295;-29
2023/08/31 09:56:20;;;;;;;4.63;2.87;;;18.60;99.90;;;;;;5063052;28;20215;-30
2023/08/31 09:58:48;;;;;;;6.15;2.65;;;18.70;99.90;;;;;;5067173;28;20218;-30
2023/08/31 10:01:16;;;;;;;6.30;3.05;;;18.70;99.90;;;;;;5066586;28;20749;-30
2023/08/31 10:03:56;;;;;;;7.10;3.15;;;18.70;99.90;;;;;;5049525;28;20574;-30
2023/08/31 10:06:27;;;;;;;6.70;3.17;;;18.70;99.90;;;;;;5048700;28;20296;-30
2023/08/31 10:08:56;;;;;;;6.13;2.50;;;18.70;99.90;;;;;;5053126;28;20208;-31
2023/08/31 10:11:25;;;;;;;4.93;2.57;;;18.80;99.90;;;;;;5065017;28;20200;-30
2023/08/31 10:13:58;;;;;;;4.95;2.80;;;18.80;99.90;;;;;;5047478;28;20208;-30
2023/08/31 10:16:27;;;;;;;7.60;2.70;;;18.80;99.90;;;;;;5048820;28;20680;-31
2023/08/31 10:18:56;;;;;;;6.00;2.42;;;18.90;99.90;;;;;;5056866;28;20222;-31
2023/08/31 10:21:26;;;;;;;5.43;2.60;;;18.90;99.90;;;;;;5065814;28;20663;-31
2023/08/31 10:23:53;;;;;;;5.93;2.50;;;18.90;99.90;;;;;;5066008;28;20248;-25
2023/08/31 10:26:26;;;;;;;4.10;2.33;;;19.00;99.90;;;;;;5075780;28;20281;-25
2023/08/31 10:28:53;;;;;;;3.87;2.23;;;19.10;99.90;;;;;;5054172;28;20204;-24
2023/08/31 10:31:27;;;;;;;5.90;2.70;;;19.10;99.90;;;;;;5066205;28;20231;-23
2023/08/31 10:34:00;;;;;;;6.93;2.57;;;19.10;99.90;;;;;;5066596;28;20573;-23
2023/08/31 10:36:45;;;;;;;8.02;2.50;;;19.20;99.90;;;;;;5061588;28;20215;-23
2023/08/31 10:39:16;;;;;;;6.70;2.25;;;19.30;99.90;;;;;;5055060;28;20239;-23
2023/08/31 10:42:00;;;;;;;7.27;2.40;;;19.30;99.90;;;;;;5052955;28;20946;-23
2023/08/31 10:44:37;;;;;;;9.10;2.70;;;19.40;99.90;;;;;;5045219;28;20220;-23
2023/08/31 10:47:05;;;;;;;6.15;2.50;;;19.50;99.90;;;;;;5048580;28;20299;-23
2023/08/31 10:49:36;;;;;;;5.40;2.30;;;19.50;99.90;;;;;;5048888;28;20230;-23
2023/08/31 10:52:20;;;;;;;5.65;2.28;;;19.60;99.90;;;;;;5063663;28;20203;-24
2023/08/31 10:55:07;;;;;;;5.95;2.25;;;19.70;99.90;;;;;;5058549;28;20200;-23
2023/08/31 10:57:40;;;;;;;6.65;2.45;;;19.70;99.90;;;;;;5051336;28;20301;-23
2023/08/31 11:00:13;;;;;;;5.28;2.13;;;19.80;99.90;;;;;;5057922;28;20247;-23
2023/08/31 11:02:43;;;;;;;7.53;2.38;;;19.90;99.90;;;;;;5052931;28;20302;-23
2023/08/31 11:05:16;;;;;;;4.13;2.15;;;19.90;99.90;;;;;;5051172;28;20192;-23
2023/08/31 11:07:44;;;;;;;4.97;2.10;;;20.00;99.90;;;;;;5059870;28;20208;-23
2023/08/31 11:10:16;;;;;;;6.63;2.53;;;20.00;99.90;;;;;;5059547;28;20258;-30
2023/08/31 11:12:48;;;;;;;6.30;2.38;;;20.00;99.90;;;;;;5047837;28;20671;-29
2023/08/31 11:15:21;;;;;;;3.88;2.00;;;20.10;99.90;;;;;;5052772;28;20577;-28
2023/08/31 11:17:53;;;;;;;5.65;2.35;;;20.20;99.90;;;;;;5057342;28;20229;-31
2023/08/31 11:20:22;;;;;;;14.82;3.03;;;20.30;99.90;;;;;;5065051;28;20226;-39
2023/08/31 11:22:55;;;;;;;7.18;2.25;;;20.30;99.90;;;;;;5059995;28;20218;-32
2023/08/31 11:25:25;;;;;;;3.65;2.30;;;20.40;99.90;;;;;;5061313;28;20571;-32
2023/08/31 11:28:04;;;;;;;6.90;2.20;;;20.40;99.90;;;;;;5052037;28;20341;-32
2023/08/31 11:30:32;;;;;;;5.53;2.22;;;20.50;99.90;;;;;;5060739;28;20196;-32
2023/08/31 11:33:07;;;;;;;10.55;2.10;;;20.50;99.90;;;;;;5052146;28;20508;-32
2023/08/31 11:35:40;;;;;;;5.93;2.13;;;20.60;99.90;;;;;;5077620;28;20202;-32
2023/08/31 11:38:08;;;;;;;4.80;2.40;;;20.60;99.90;;;;;;5057707;28;20208;-32
2023/08/31 11:40:36;;;;;;;4.70;2.08;;;20.60;99.90;;;;;;5057663;28;21258;-32
2023/08/31 11:43:07;;;;;;;4.43;1.83;;;20.60;99.90;;;;;;5043413;28;20208;-32
2023/08/31 11:45:37;;;;;;;6.82;2.28;;;20.60;99.90;;;;;;5045592;28;20196;-32
2023/08/31 11:48:06;;;;;;;5.55;2.13;;;20.60;99.90;;;;;;5036805;28;20210;-32
2023/08/31 11:50:34;;;;;;;4.53;2.17;;;20.70;99.90;;;;;;5054902;28;20677;-32
2023/08/31 11:53:04;;;;;;;6.65;2.50;;;20.80;99.90;;;;;;5056061;28;20892;-38
2023/08/31 11:55:33;;;;;;;6.80;2.78;;;20.60;99.90;;;;;;5047729;28;20200;-31
2023/08/31 12:01:50;;;;;;;42.15;3.38;;;25.10;47.60;;;;;;5118348;27;20569;-28
2023/08/31 12:04:24;;;;;;;6.35;2.17;;;23.20;53.50;;;;;;5092126;27;20235;-36
2023/08/31 12:06:55;;;;;;;11.05;2.42;;;22.20;57.80;;;;;;5076400;28;20597;-37
2023/08/31 12:09:25;;;;;;;8.20;2.38;;;21.70;59.40;;;;;;5041797;28;20203;-38
2023/08/31 12:11:52;;;;;;;3.83;2.03;;;21.40;60.50;;;;;;5073923;28;20243;-38
2023/08/31 12:14:20;;;;;;;4.95;1.85;;;21.20;61.10;;;;;;5060930;28;20213;-39
2023/08/31 12:16:51;;;;;;;6.65;2.20;;;21.10;61.20;;;;;;5069640;28;20269;-39
2023/08/31 12:19:28;;;;;;;4.85;1.77;;;21.00;61.80;;;;;;5059710;28;71317;-38
2023/08/31 12:21:56;;;;;;;6.03;1.80;;;21.00;62.40;;;;;;5037419;28;68762;-38
2023/08/31 12:24:23;;;;;;;8.05;2.03;;;21.00;62.40;;;;;;5030973;28;55657;-38
2023/08/31 12:26:50;;;;;;;7.13;2.10;;;20.90;62.80;;;;;;5078706;28;20650;-39
2023/08/31 12:29:21;;;;;;;5.00;2.38;;;20.90;61.70;;;;;;5070776;28;20202;-39
2023/08/31 12:31:49;;;;;;;7.47;2.20;;;20.90;62.50;;;;;;5069937;28;20230;-39
2023/08/31 12:34:19;;;;;;;4.10;1.88;;;20.90;62.50;;;;;;5079499;28;20216;-39
2023/08/31 12:36:46;;;;;;;9.23;2.50;;;20.80;62.50;;;;;;5080443;28;20203;-39
2023/08/31 12:39:13;;;;;;;7.85;2.40;;;20.80;62.90;;;;;;5078713;28;20300;-39
2023/08/31 12:41:40;;;;;;;9.68;2.67;;;20.80;63.00;;;;;;5066234;28;20206;-39
2023/08/31 12:44:10;;;;;;;7.57;2.20;;;20.80;62.50;;;;;;5074599;28;20224;-39
2023/08/31 12:46:39;;;;;;;6.15;2.00;;;20.80;61.60;;;;;;5068286;28;20736;-39
2023/08/31 12:49:09;;;;;;;10.88;1.95;;;20.80;61.50;;;;;;5054340;28;20207;-39
2023/08/31 12:51:36;;;;;;;7.80;2.28;;;20.70;61.80;;;;;;5070111;28;20597;-39
2023/08/31 12:54:03;;;;;;;4.95;1.70;;;20.70;62.00;;;;;;5054922;28;20213;-39
2023/08/31 12:56:30;;;;;;;5.10;2.05;;;20.70;61.20;;;;;;5057513;28;20750;-39
2023/08/31 12:59:02;;;;;;;8.00;2.58;;;20.60;62.00;;;;;;5038741;28;20387;-40
2023/08/31 13:01:34;;;;;;;8.38;2.33;;;20.60;62.20;;;;;;5055217;28;20304;-39
2023/08/31 13:04:05;;;;;;;7.63;2.40;;;20.60;62.10;;;;;;5050794;28;20302;-39